Main page
METAR-TAF:

METAR-TAF

Airports :

Athens International Airport

Athens, Greece

latitude: 37-56N, longitude: 023-56E, elevation: 94 m

Current weather observation

The report was made 30 minutes ago, at 11:50 UTC
Wind 9 kt from the Southwest
Temperature 22°C
Humidity 50%
Pressure 1011 hPa
Visibility 10 km or more
no clouds below 1500 m and no cumulonimbus

METAR: LGAV 211150Z 23009KT CAVOK 22/11 Q1011 NOSIG

Time: 14:20 (12:20 UTC)

Forecast

The report was made 1 hour and 20 minutes ago, at 11:00 UTC
Forecast valid from 21 at 12 UTC to 22 at 12 UTC
Wind 12 kt from the West/Southwest
Visibility 10 km or more
Few clouds at a height of 2500 ft

TAF: LGAV 211100Z 2112/2212 25012KT 9999 FEW025

Weather observations and forecasts of more than 4000 airports (METAR and TAF reports).

The available stations are represented by yellow and red dots on the map.

Hover mouse over dot to see the name of the station.

Then click to see weather observations and forecasts.

To change the map : click on the green buttons with a black cross to zoom in, on the green button with a dash to zoom out, or on the green arrows for adjacent maps.


METAR-TAF: